RXA6117 YMRY-YSSY
Flight info
| Callsign | RXA6117 |
|---|---|
| Flight time | N/A |
| Altitude | 20000 |
| Route | URBOB W40 AKMIR/N0278F190 W113 ODALE |
| Aircraft | SF34/M-SDFGR/S |
Departure
| Time | 2026-04-20 09:03 |
|---|---|
| Airport | Moruya Airport (YMRY) |
Arrival
| Time | N/A |
|---|---|
| Airport | Sydney Kingsford Smith International Airport (YSSY) |
| Time | Latitude | Longitude | Altitude | Speed | Heading |
|---|---|---|---|---|---|
| 2026-04-20 08:51 | -35.90254 | 150.14646 | 33 ft | 0 kts | 149° |
| 2026-04-20 09:00 | -35.90255 | 150.14646 | 26 ft | 1 kts | 170° |
| 2026-04-20 09:00 | -35.90252 | 150.14621 | 32 ft | 10 kts | 302° |
| 2026-04-20 09:01 | -35.90204 | 150.14492 | 33 ft | 13 kts | 325° |
| 2026-04-20 09:01 | -35.90122 | 150.14507 | 33 ft | 20 kts | 14° |
| 2026-04-20 09:01 | -35.89934 | 150.14556 | 32 ft | 35 kts | 11° |
| 2026-04-20 09:01 | -35.89657 | 150.14621 | 31 ft | 45 kts | 10° |
| 2026-04-20 09:02 | -35.89329 | 150.14709 | 31 ft | 50 kts | 12° |
| 2026-04-20 09:02 | -35.89064 | 150.14776 | 30 ft | 30 kts | 12° |
| 2026-04-20 09:02 | -35.88898 | 150.14801 | 28 ft | 10 kts | 9° |
| 2026-04-20 09:02 | -35.88902 | 150.14825 | 28 ft | 5 kts | 214° |
| 2026-04-20 09:03 | -35.89090 | 150.14775 | 30 ft | 65 kts | 192° |
| 2026-04-20 09:03 | -35.89769 | 150.14595 | 41 ft | 131 kts | 194° |
| 2026-04-20 09:03 | -35.90778 | 150.14361 | 321 ft | 157 kts | 190° |
| 2026-04-20 09:03 | -35.91857 | 150.14042 | 923 ft | 162 kts | 205° |
| 2026-04-20 09:04 | -35.92537 | 150.12996 | 1522 ft | 166 kts | 255° |
| 2026-04-20 09:04 | -35.92287 | 150.11619 | 2136 ft | 173 kts | 306° |
| 2026-04-20 09:04 | -35.91252 | 150.10906 | 2749 ft | 177 kts | 355° |
| 2026-04-20 09:04 | -35.90103 | 150.11333 | 3356 ft | 175 kts | 38° |
| 2026-04-20 09:05 | -35.89142 | 150.12265 | 3951 ft | 177 kts | 41° |
| 2026-04-20 09:05 | -35.88168 | 150.13219 | 4555 ft | 180 kts | 41° |
| 2026-04-20 09:05 | -35.87420 | 150.13773 | 4963 ft | 183 kts | 20° |